Time;durP1;ratioP1;P1;durP2;ratioP2;P2;SDS_P1;SDS_P2;PMS_P1;PMS_P2;Temp;Humidity;BMP_temperature;BMP_pressure;BME280_temperature;BME280_humidity;BME280_pressure;Samples;Min_cycle;Max_cycle;Signal;HPM_P1;HPM_P2
2023/03/21 00:01:24;;;;;;;;;;;9.60;99.90;;;;;;6212144;23;19900;-88
2023/03/21 00:03:50;;;;;;;;;;;9.50;99.90;;;;;;6211962;23;19907;-88
2023/03/21 00:06:15;;;;;;;;;;;9.50;99.90;;;;;;6211413;23;19904;-87
2023/03/21 00:08:41;;;;;;;;;;;9.60;99.90;;;;;;6213310;23;19900;-88
2023/03/21 00:11:08;;;;;;;;;;;9.60;99.90;;;;;;6212197;23;19900;-88
2023/03/21 00:13:37;;;;;;;;;;;9.60;99.90;;;;;;6212214;23;19903;-88
2023/03/21 00:16:03;;;;;;;;;;;9.60;99.90;;;;;;6211401;23;20256;-87
2023/03/21 00:18:29;;;;;;;;;;;9.70;99.90;;;;;;6211756;23;19903;-88
2023/03/21 00:21:01;;;;;;;;;;;9.80;99.90;;;;;;6211245;23;19934;-89
2023/03/21 00:23:28;;;;;;;;;;;9.70;99.90;;;;;;6185161;23;20378;-88
2023/03/21 00:25:53;;;;;;;;;;;9.80;99.90;;;;;;6212157;23;19899;-87
2023/03/21 00:28:19;;;;;;;;;;;9.70;99.90;;;;;;6211860;23;20236;-86
2023/03/21 00:30:45;;;;;;;;;;;9.80;99.90;;;;;;6211760;23;19925;-87
2023/03/21 00:33:11;;;;;;;;;;;9.90;99.90;;;;;;6212426;23;19923;-89
2023/03/21 00:35:37;;;;;;;;;;;9.70;99.90;;;;;;6211963;23;19984;-88
2023/03/21 00:38:03;;;;;;;;;;;9.80;99.90;;;;;;6211151;23;19931;-87
2023/03/21 00:40:28;;;;;;;;;;;9.80;99.90;;;;;;6211685;23;19908;-87
2023/03/21 00:42:54;;;;;;;;;;;9.70;99.90;;;;;;6211762;23;19904;-87
2023/03/21 00:45:20;;;;;;;;;;;9.70;99.90;;;;;;6211486;23;19900;-88
2023/03/21 00:47:46;;;;;;;;;;;9.70;99.90;;;;;;6211407;23;19907;-87
2023/03/21 00:50:12;;;;;;;;;;;9.60;99.90;;;;;;6212309;23;19900;-88
2023/03/21 00:52:37;;;;;;;;;;;9.80;99.90;;;;;;6211384;23;20036;-87
2023/03/21 00:55:03;;;;;;;;;;;9.70;99.90;;;;;;6211528;23;19900;-88
2023/03/21 00:57:29;;;;;;;;;;;9.70;99.90;;;;;;6211469;23;19906;-89
2023/03/21 00:59:56;;;;;;;;;;;9.80;99.90;;;;;;6211070;23;19908;-89
2023/03/21 01:02:25;;;;;;;;;;;9.60;99.90;;;;;;6210240;23;20232;-87
2023/03/21 01:04:53;;;;;;;;;;;9.70;99.90;;;;;;6211664;23;20230;-87
2023/03/21 01:07:19;;;;;;;;;;;9.70;99.90;;;;;;6211648;23;19900;-90
2023/03/21 01:09:44;;;;;;;;;;;9.50;99.90;;;;;;6212178;23;19953;-88
2023/03/21 01:12:10;;;;;;;;;;;9.90;99.90;;;;;;6211319;23;19900;-88
2023/03/21 01:14:36;;;;;;;;;;;9.70;99.90;;;;;;6211355;23;20223;-88
2023/03/21 01:17:01;;;;;;;;;;;9.80;99.90;;;;;;6210729;23;19907;-87
2023/03/21 01:19:27;;;;;;;;;;;9.70;99.90;;;;;;6211333;23;19912;-88
2023/03/21 01:21:53;;;;;;;;;;;9.80;99.90;;;;;;6211254;23;19900;-87
2023/03/21 01:24:18;;;;;;;;;;;9.80;99.90;;;;;;6211160;23;20241;-88
2023/03/21 01:26:44;;;;;;;;;;;9.80;99.90;;;;;;6212069;23;19923;-87
2023/03/21 01:29:10;;;;;;;;;;;9.90;99.90;;;;;;6211219;23;19900;-89
2023/03/21 01:31:35;;;;;;;;;;;9.80;99.90;;;;;;6211094;23;19906;-84
2023/03/21 01:34:01;;;;;;;;;;;9.80;99.90;;;;;;6210632;23;20383;-88
2023/03/21 01:36:26;;;;;;;;;;;9.90;99.90;;;;;;6211173;23;19900;-88
2023/03/21 01:38:52;;;;;;;;;;;9.80;99.90;;;;;;6211157;23;19904;-86
2023/03/21 01:41:29;;;;;;;;;;;9.80;99.90;;;;;;6210975;23;19908;-83
2023/03/21 01:43:54;;;;;;;;;;;9.80;99.90;;;;;;6210340;23;20317;-87
2023/03/21 01:46:40;;;;;;;;;;;9.80;99.90;;;;;;6211189;23;19906;-85
2023/03/21 01:49:11;;;;;;;;;;;9.70;99.90;;;;;;6211059;23;19923;-87
2023/03/21 01:51:38;;;;;;;;;;;9.80;99.90;;;;;;6210960;23;20284;-86
2023/03/21 01:54:06;;;;;;;;;;;9.90;99.90;;;;;;6210420;23;20339;-87
2023/03/21 01:56:34;;;;;;;;;;;9.80;99.90;;;;;;6210567;23;20352;-87
2023/03/21 01:59:04;;;;;;;;;;;9.70;99.90;;;;;;6210938;23;19903;-87
2023/03/21 02:01:30;;;;;;;;;;;9.80;99.90;;;;;;6184499;23;19969;-87
2023/03/21 02:03:56;;;;;;;;;;;9.70;99.90;;;;;;6210531;23;19899;-88
2023/03/21 02:06:30;;;;;;;;;;;9.80;99.90;;;;;;6211027;23;19900;-89
2023/03/21 02:08:58;;;;;;;;;;;9.80;99.90;;;;;;6210456;23;19907;-87
2023/03/21 02:11:25;;;;;;;;;;;9.70;99.90;;;;;;6211021;23;19900;-88
2023/03/21 02:13:51;;;;;;;;;;;9.70;99.90;;;;;;6211284;23;19900;-86
2023/03/21 02:16:20;;;;;;;;;;;9.80;99.90;;;;;;6211632;23;19907;-88
2023/03/21 02:19:05;;;;;;;;;;;9.70;99.90;;;;;;6211744;23;19946;-87
2023/03/21 02:21:30;;;;;;;;;;;9.70;99.90;;;;;;6210817;23;19918;-87
2023/03/21 02:24:14;;;;;;;;;;;9.80;99.90;;;;;;6210105;23;20331;-87
2023/03/21 02:26:54;;;;;;;;;;;9.80;99.90;;;;;;6210821;23;20498;-87
2023/03/21 02:29:38;;;;;;;;;;;9.70;99.90;;;;;;6211276;23;19943;-82
2023/03/21 02:32:34;;;;;;;;;;;10.00;99.90;;;;;;6184099;23;19928;-88
2023/03/21 02:35:18;;;;;;;;;;;9.70;99.90;;;;;;6210846;23;19907;-87
2023/03/21 02:37:47;;;;;;;;;;;9.80;99.90;;;;;;6210725;23;19900;-87
2023/03/21 02:40:35;;;;;;;;;;;9.80;99.90;;;;;;6211784;23;19908;-85
2023/03/21 02:43:01;;;;;;;;;;;9.80;99.90;;;;;;6143284;23;19900;-87
2023/03/21 02:45:44;;;;;;;;;;;9.80;99.90;;;;;;6212901;23;20257;-88
2023/03/21 02:48:11;;;;;;;;;;;9.90;99.90;;;;;;6212300;23;19907;-87
2023/03/21 02:50:45;;;;;;;;;;;9.90;99.90;;;;;;6212665;23;19985;-88
2023/03/21 02:53:12;;;;;;;;;;;9.90;99.90;;;;;;6185892;23;19907;-87
2023/03/21 02:55:41;;;;;;;;;;;9.90;99.90;;;;;;6212661;23;19979;-88
2023/03/21 02:58:09;;;;;;;;;;;9.90;99.90;;;;;;6186082;23;20387;-87
2023/03/21 03:00:35;;;;;;;;;;;10.00;99.90;;;;;;6212580;23;19914;-85
2023/03/21 03:03:02;;;;;;;;;;;10.00;99.90;;;;;;6211785;23;19983;-88
2023/03/21 03:05:29;;;;;;;;;;;10.10;99.90;;;;;;6211957;23;19913;-83
2023/03/21 03:08:10;;;;;;;;;;;10.00;99.90;;;;;;6212504;23;19934;-86
2023/03/21 03:10:41;;;;;;;;;;;10.00;99.90;;;;;;6212391;23;19944;-87
2023/03/21 03:13:10;;;;;;;;;;;10.00;99.90;;;;;;6185713;23;19906;-86
2023/03/21 03:15:44;;;;;;;;;;;10.10;99.90;;;;;;6212335;23;19900;-86
2023/03/21 03:18:15;;;;;;;;;;;10.10;99.90;;;;;;6212175;23;19927;-87
2023/03/21 03:21:04;;;;;;;;;;;10.10;99.90;;;;;;6212378;23;19912;-88
2023/03/21 03:23:43;;;;;;;;;;;10.10;99.90;;;;;;6143301;23;20320;-84
2023/03/21 03:26:26;;;;;;;;;;;10.10;99.90;;;;;;6212954;23;19911;-85
2023/03/21 03:28:57;;;;;;;;;;;10.10;99.90;;;;;;6186766;23;19986;-87
2023/03/21 03:31:28;;;;;;;;;;;10.20;99.90;;;;;;6213255;23;19954;-86
2023/03/21 03:33:55;;;;;;;;;;;10.20;99.90;;;;;;6212323;23;19954;-83
2023/03/21 03:36:24;;;;;;;;;;;10.20;99.90;;;;;;6186498;23;19900;-83
2023/03/21 03:38:50;;;;;;;;;;;10.20;99.90;;;;;;6213030;23;19900;-84
2023/03/21 03:41:24;;;;;;;;;;;10.20;99.90;;;;;;6185703;23;19908;-84
2023/03/21 03:43:52;;;;;;;;;;;10.20;99.90;;;;;;6213121;23;19906;-88
2023/03/21 03:46:30;;;;;;;;;;;10.30;99.90;;;;;;6212037;23;20510;-86
2023/03/21 03:48:59;;;;;;;;;;;12.10;99.90;;;;;;6184957;23;19900;-86
2023/03/21 03:51:27;;;;;;;;;;;10.30;99.90;;;;;;6212275;23;19900;-83
2023/03/21 03:53:59;;;;;;;;;;;10.30;99.90;;;;;;6210074;23;19908;-86
2023/03/21 03:56:26;;;;;;;;;;;10.30;99.90;;;;;;6208952;23;20018;-82
2023/03/21 03:58:51;;;;;;;;;;;10.30;99.90;;;;;;6208946;23;19907;-88
2023/03/21 04:01:17;;;;;;;;;;;10.20;99.90;;;;;;6207858;23;19910;-85
2023/03/21 04:03:44;;;;;;;;;;;10.20;99.90;;;;;;6211432;23;19900;-87
2023/03/21 04:06:09;;;;;;;;;;;10.30;99.90;;;;;;6186056;23;19950;-86
2023/03/21 04:08:36;;;;;;;;;;;10.30;99.90;;;;;;6212263;23;19900;-83
2023/03/21 04:11:02;;;;;;;;;;;10.30;99.90;;;;;;6212228;23;19983;-86
2023/03/21 04:13:27;;;;;;;;;;;10.30;99.90;;;;;;6208938;23;20301;-82
2023/03/21 04:15:53;;;;;;;;;;;10.40;99.90;;;;;;6211052;23;19907;-88
2023/03/21 04:18:18;;;;;;;;;;;10.30;99.90;;;;;;6181859;23;19927;-86
2023/03/21 04:20:44;;;;;;;;;;;10.30;99.90;;;;;;6207201;23;19916;-90
2023/03/21 04:23:10;;;;;;;;;;;10.30;99.90;;;;;;6208937;23;19904;-88
2023/03/21 04:25:36;;;;;;;;;;;10.50;99.90;;;;;;6182666;23;19911;-87
2023/03/21 04:28:01;;;;;;;;;;;10.30;99.90;;;;;;6209583;23;19907;-87
2023/03/21 04:30:27;;;;;;;;;;;10.50;99.90;;;;;;6210261;23;19931;-82
2023/03/21 04:32:55;;;;;;;;;;;10.40;99.90;;;;;;6212688;23;19900;-87
2023/03/21 04:35:22;;;;;;;;;;;10.50;99.90;;;;;;6212039;23;19900;-86
2023/03/21 04:37:47;;;;;;;;;;;10.40;99.90;;;;;;6212307;23;19947;-84
2023/03/21 04:40:16;;;;;;;;;;;10.50;99.90;;;;;;6211970;23;20415;-86
2023/03/21 04:42:42;;;;;;;;;;;10.50;99.90;;;;;;6185817;23;20305;-85
2023/03/21 04:45:08;;;;;;;;;;;10.50;99.90;;;;;;6211959;23;19899;-88
2023/03/21 04:47:33;;;;;;;;;;;10.50;99.90;;;;;;6185316;23;20222;-87
2023/03/21 04:49:59;;;;;;;;;;;10.50;99.90;;;;;;6212379;23;19953;-88
2023/03/21 04:52:25;;;;;;;;;;;10.80;99.90;;;;;;6212958;23;19900;-85
2023/03/21 04:54:50;;;;;;;;;;;10.50;99.90;;;;;;6210780;23;19935;-87
2023/03/21 04:57:16;;;;;;;;;;;10.50;99.90;;;;;;6211490;23;19928;-84
2023/03/21 04:59:41;;;;;;;;;;;10.60;99.90;;;;;;6211380;23;19954;-85
2023/03/21 05:02:07;;;;;;;;;;;10.60;99.90;;;;;;6211143;23;19907;-85
2023/03/21 05:04:32;;;;;;;;;;;10.50;99.90;;;;;;6210377;23;19946;-84
2023/03/21 05:06:58;;;;;;;;;;;10.60;99.90;;;;;;6212404;23;19983;-84
2023/03/21 05:09:24;;;;;;;;;;;10.50;99.90;;;;;;6184469;23;19900;-85
2023/03/21 05:11:49;;;;;;;;;;;10.60;99.90;;;;;;6210090;23;19907;-85
2023/03/21 05:14:20;;;;;;;;;;;10.60;99.90;;;;;;6211137;23;19900;-85
2023/03/21 05:16:52;;;;;;;;;;;10.60;99.90;;;;;;6211162;23;19986;-85
2023/03/21 05:19:19;;;;;;;;;;;10.60;99.90;;;;;;6211369;23;19978;-86
2023/03/21 05:21:45;;;;;;;;;;;10.60;99.90;;;;;;6211642;23;19954;-87
2023/03/21 05:24:14;;;;;;;;;;;10.60;99.90;;;;;;6211254;23;19904;-87
2023/03/21 05:26:41;;;;;;;;;;;10.70;99.90;;;;;;6211287;23;19900;-86
2023/03/21 05:29:07;;;;;;;;;;;10.60;99.90;;;;;;6211162;23;20321;-86
2023/03/21 05:31:32;;;;;;;;;;;10.60;99.90;;;;;;6211514;23;19899;-83
2023/03/21 05:33:58;;;;;;;;;;;10.60;99.90;;;;;;6212423;23;19900;-85
2023/03/21 05:36:24;;;;;;;;;;;10.70;99.90;;;;;;6211181;23;20272;-85
2023/03/21 05:38:50;;;;;;;;;;;10.80;99.90;;;;;;6184635;23;20259;-86
2023/03/21 05:41:16;;;;;;;;;;;10.70;99.90;;;;;;6211099;23;19974;-85
2023/03/21 05:43:42;;;;;;;;;;;10.70;99.90;;;;;;6210996;23;20341;-87
2023/03/21 05:46:08;;;;;;;;;;;10.70;99.90;;;;;;6211220;23;19907;-88
2023/03/21 05:48:33;;;;;;;;;;;10.70;99.90;;;;;;6211319;23;19900;-84
2023/03/21 05:50:59;;;;;;;;;;;10.70;99.90;;;;;;6211538;23;19904;-84
2023/03/21 05:53:25;;;;;;;;;;;10.70;99.90;;;;;;6211382;23;20232;-86
2023/03/21 05:55:50;;;;;;;;;;;10.80;99.90;;;;;;6211207;23;20199;-86
2023/03/21 05:58:16;;;;;;;;;;;10.80;99.90;;;;;;6210658;23;19923;-85
2023/03/21 06:00:41;;;;;;;;;;;10.80;99.90;;;;;;6211362;23;19907;-86
2023/03/21 06:03:07;;;;;;;;;;;10.80;99.90;;;;;;6213456;23;19907;-94
2023/03/21 06:05:33;;;;;;;;;;;10.90;99.90;;;;;;6187504;23;19954;-93
2023/03/21 06:07:58;;;;;;;;;;;10.80;99.90;;;;;;6213706;23;19904;-92
2023/03/21 06:10:25;;;;;;;;;;;10.80;99.90;;;;;;6217484;23;19910;-92
2023/03/21 06:12:56;;;;;;;;;;;10.90;99.90;;;;;;6226396;23;19906;-92
2023/03/21 06:15:27;;;;;;;;;;;10.80;99.90;;;;;;6220847;23;20395;-88
2023/03/21 06:17:53;;;;;;;;;;;10.80;99.90;;;;;;6205745;23;19923;-93
2023/03/21 06:20:20;;;;;;;;;;;10.80;99.90;;;;;;6199121;23;19916;-88
2023/03/21 06:22:45;;;;;;;;;;;10.90;99.90;;;;;;6225186;23;19900;-92
2023/03/21 06:25:11;;;;;;;;;;;10.90;99.90;;;;;;6220952;23;19938;-94
2023/03/21 06:27:36;;;;;;;;;;;10.80;99.90;;;;;;6232375;23;19907;-86
2023/03/21 06:30:04;;;;;;;;;;;10.80;99.90;;;;;;6231762;23;19906;-89
2023/03/21 06:32:30;;;;;;;;;;;10.80;99.90;;;;;;6193031;23;19926;-93
2023/03/21 06:34:56;;;;;;;;;;;10.80;99.90;;;;;;6223929;23;19900;-90
2023/03/21 06:37:22;;;;;;;;;;;10.80;99.90;;;;;;6212816;23;19961;-89
2023/03/21 06:39:47;;;;;;;;;;;11.20;99.90;;;;;;6217251;23;19915;-89
2023/03/21 06:42:14;;;;;;;;;;;10.80;99.90;;;;;;6212578;23;19900;-91
2023/03/21 06:44:40;;;;;;;;;;;10.90;99.90;;;;;;6212842;23;20325;-90
2023/03/21 06:47:06;;;;;;;;;;;10.80;99.90;;;;;;6213648;23;19938;-88
2023/03/21 06:49:31;;;;;;;;;;;10.90;99.90;;;;;;6188667;23;19904;-88
2023/03/21 06:51:57;;;;;;;;;;;11.00;99.90;;;;;;6215951;23;19900;-89
2023/03/21 06:54:22;;;;;;;;;;;10.90;99.90;;;;;;6214113;23;19899;-88
2023/03/21 06:56:48;;;;;;;;;;;10.90;99.90;;;;;;6217042;23;19900;-87
2023/03/21 06:59:14;;;;;;;;;;;11.00;99.90;;;;;;6216372;23;20225;-90
2023/03/21 07:01:39;;;;;;;;;;;11.10;99.90;;;;;;6214511;23;19908;-89
2023/03/21 07:04:05;;;;;;;;;;;11.10;99.90;;;;;;6214916;23;19907;-88
2023/03/21 07:06:31;;;;;;;;;;;11.10;99.90;;;;;;6190634;23;19904;-89
2023/03/21 07:08:57;;;;;;;;;;;11.20;99.90;;;;;;6189521;23;19903;-86
2023/03/21 07:11:23;;;;;;;;;;;11.20;99.90;;;;;;6222065;23;19907;-89
2023/03/21 07:13:48;;;;;;;;;;;11.20;99.90;;;;;;6219573;23;20038;-88
2023/03/21 07:16:14;;;;;;;;;;;11.20;99.90;;;;;;6216809;23;19906;-88
2023/03/21 07:18:40;;;;;;;;;;;11.40;99.90;;;;;;6214556;23;19899;-88
2023/03/21 07:21:06;;;;;;;;;;;11.30;99.90;;;;;;6211360;23;19991;-87
2023/03/21 07:23:31;;;;;;;;;;;11.40;99.90;;;;;;6213654;23;19904;-89
2023/03/21 07:25:57;;;;;;;;;;;11.40;99.90;;;;;;6190419;23;19939;-87
2023/03/21 07:28:23;;;;;;;;;;;11.50;99.90;;;;;;6191974;23;19915;-87
2023/03/21 07:31:11;;;;;;;;;;;11.40;99.90;;;;;;6189574;23;19900;-87
2023/03/21 07:33:37;;;;;;;;;;;11.60;99.90;;;;;;6214585;23;19947;-87
2023/03/21 07:36:02;;;;;;;;;;;11.60;99.90;;;;;;6216991;23;19907;-86
2023/03/21 07:38:29;;;;;;;;;;;11.70;99.90;;;;;;6189981;23;20281;-89
2023/03/21 07:40:57;;;;;;;;;;;11.80;99.90;;;;;;6215146;23;20371;-87
2023/03/21 07:43:22;;;;;;;;;;;11.80;99.90;;;;;;6214361;23;19926;-89
2023/03/21 07:45:48;;;;;;;;;;;11.90;99.90;;;;;;6214917;23;19900;-91
2023/03/21 07:48:16;;;;;;;;;;;11.90;99.90;;;;;;6214992;23;20253;-87
2023/03/21 07:50:41;;;;;;;;;;;12.00;99.90;;;;;;6216402;23;19900;-92
2023/03/21 07:53:07;;;;;;;;;;;12.00;99.90;;;;;;6190031;23;19927;-87
2023/03/21 07:55:33;;;;;;;;;;;12.00;99.90;;;;;;6189298;23;19931;-90
2023/03/21 07:58:03;;;;;;;;;;;12.00;99.90;;;;;;6188004;23;19938;-89
2023/03/21 08:00:29;;;;;;;;;;;12.20;99.90;;;;;;6187472;23;19908;-86
2023/03/21 08:02:55;;;;;;;;;;;12.20;99.90;;;;;;6215234;23;19926;-89
2023/03/21 08:05:21;;;;;;;;;;;12.20;99.90;;;;;;6213687;23;20347;-92
2023/03/21 08:07:47;;;;;;;;;;;12.10;99.90;;;;;;6213995;23;20245;-91
2023/03/21 08:10:13;;;;;;;;;;;12.20;99.90;;;;;;6186678;23;19955;-88
2023/03/21 08:12:38;;;;;;;;;;;12.50;99.90;;;;;;6213203;23;19900;-87
2023/03/21 08:15:04;;;;;;;;;;;12.30;99.90;;;;;;6213832;23;19900;-90
2023/03/21 08:17:30;;;;;;;;;;;12.30;99.90;;;;;;6213199;23;20231;-90
2023/03/21 08:19:55;;;;;;;;;;;12.30;99.90;;;;;;6212563;23;19987;-89
2023/03/21 08:22:21;;;;;;;;;;;12.40;99.90;;;;;;6213167;23;19953;-87
2023/03/21 08:24:47;;;;;;;;;;;12.50;99.90;;;;;;6214302;23;19899;-88
2023/03/21 08:27:13;;;;;;;;;;;12.60;99.90;;;;;;6213340;23;19906;-92
2023/03/21 08:29:41;;;;;;;;;;;12.80;99.90;;;;;;6213505;23;19925;-90
2023/03/21 08:32:06;;;;;;;;;;;12.70;99.90;;;;;;6188709;23;20254;-88
2023/03/21 08:34:32;;;;;;;;;;;13.30;99.90;;;;;;6185922;23;19910;-90
2023/03/21 08:36:58;;;;;;;;;;;12.60;99.90;;;;;;6212974;23;20093;-90
2023/03/21 08:39:23;;;;;;;;;;;12.80;99.90;;;;;;6213689;23;19911;-90
2023/03/21 08:41:49;;;;;;;;;;;12.80;99.90;;;;;;6187969;23;19999;-89
2023/03/21 08:44:15;;;;;;;;;;;12.90;99.90;;;;;;6214127;23;20325;-89
2023/03/21 08:46:41;;;;;;;;;;;13.00;99.90;;;;;;6215918;23;20317;-88
2023/03/21 08:49:07;;;;;;;;;;;12.90;99.90;;;;;;6189729;23;19977;-89
2023/03/21 08:51:33;;;;;;;;;;;13.00;99.90;;;;;;6188867;23;20339;-90
2023/03/21 08:53:59;;;;;;;;;;;13.00;99.90;;;;;;6214399;23;20417;-89
2023/03/21 08:56:24;;;;;;;;;;;13.20;99.90;;;;;;6214924;23;19954;-88
2023/03/21 08:58:50;;;;;;;;;;;13.30;99.90;;;;;;6215084;23;19907;-89
2023/03/21 09:01:15;;;;;;;;;;;13.20;99.90;;;;;;6215647;23;19911;-88
2023/03/21 09:03:42;;;;;;;;;;;13.30;99.90;;;;;;6185645;23;20392;-88
2023/03/21 09:06:10;;;;;;;;;;;13.40;99.90;;;;;;6214221;23;19900;-90
2023/03/21 09:08:40;;;;;;;;;;;13.50;99.90;;;;;;6186286;23;19930;-89
2023/03/21 09:11:07;;;;;;;;;;;13.40;99.90;;;;;;6213830;23;19907;-89
2023/03/21 09:13:32;;;;;;;;;;;13.60;99.90;;;;;;6186009;23;19934;-86
2023/03/21 09:16:00;;;;;;;;;;;13.80;99.90;;;;;;6185624;23;19904;-87
2023/03/21 09:18:44;;;;;;;;;;;13.80;99.90;;;;;;6211750;23;19900;-86
2023/03/21 09:21:12;;;;;;;;;;;13.70;99.90;;;;;;6212478;23;20333;-87
2023/03/21 09:23:39;;;;;;;;;;;13.80;99.90;;;;;;6212968;23;19900;-87
2023/03/21 09:26:05;;;;;;;;;;;13.80;99.90;;;;;;6185014;23;19987;-91
2023/03/21 09:28:31;;;;;;;;;;;13.70;99.90;;;;;;6210911;23;20132;-88
2023/03/21 09:30:57;;;;;;;;;;;13.80;99.90;;;;;;6211254;23;19900;-86
2023/03/21 09:33:24;;;;;;;;;;;13.50;99.90;;;;;;6211580;23;19900;-86
2023/03/21 09:35:50;;;;;;;;;;;13.40;99.90;;;;;;6184801;23;20240;-88
2023/03/21 09:38:16;;;;;;;;;;;13.20;99.90;;;;;;6212205;23;20313;-88
2023/03/21 09:40:57;;;;;;;;;;;13.00;99.90;;;;;;6214968;23;19919;-86
2023/03/21 09:43:33;;;;;;;;;;;13.10;99.90;;;;;;6211845;23;20213;-87
2023/03/21 09:46:06;;;;;;;;;;;12.90;99.90;;;;;;6212380;23;19906;-87
2023/03/21 09:48:39;;;;;;;;;;;12.90;99.90;;;;;;6211602;23;20656;-85
2023/03/21 09:51:09;;;;;;;;;;;12.90;99.90;;;;;;6210834;23;19927;-88
2023/03/21 09:53:36;;;;;;;;;;;12.80;99.90;;;;;;6184939;23;19907;-86
2023/03/21 09:56:02;;;;;;;;;;;13.00;99.90;;;;;;6186734;23;19899;-88
2023/03/21 09:58:28;;;;;;;;;;;12.80;99.90;;;;;;6187554;23;19900;-87
2023/03/21 10:01:04;;;;;;;;;;;13.00;99.90;;;;;;6187833;23;19908;-85
2023/03/21 10:03:33;;;;;;;;;;;13.00;99.90;;;;;;6214723;23;19908;-85
2023/03/21 10:06:02;;;;;;;;;;;13.20;99.90;;;;;;6188170;23;19900;-86
2023/03/21 10:08:35;;;;;;;;;;;13.40;99.90;;;;;;6214385;23;19899;-87
2023/03/21 10:11:04;;;;;;;;;;;13.70;99.90;;;;;;6213851;23;19981;-88
2023/03/21 10:13:33;;;;;;;;;;;13.90;99.90;;;;;;6211947;23;19904;-87
2023/03/21 10:16:01;;;;;;;;;;;13.90;99.90;;;;;;6212633;23;19911;-87
2023/03/21 10:18:28;;;;;;;;;;;14.20;99.90;;;;;;6186447;23;20241;-85
2023/03/21 10:20:54;;;;;;;;;;;14.60;99.90;;;;;;6186160;23;20339;-86
2023/03/21 10:23:21;;;;;;;;;;;15.00;99.90;;;;;;6214062;23;19911;-87
2023/03/21 10:25:50;;;;;;;;;;;15.20;99.90;;;;;;6214300;23;20274;-87
2023/03/21 10:28:17;;;;;;;;;;;15.30;99.90;;;;;;6211124;23;19900;-86
2023/03/21 10:30:49;;;;;;;;;;;14.60;99.90;;;;;;6211652;23;19975;-87
2023/03/21 10:33:17;;;;;;;;;;;14.50;99.90;;;;;;6210495;23;19900;-86
2023/03/21 10:35:45;;;;;;;;;;;14.40;99.90;;;;;;6185936;23;19900;-87
2023/03/21 10:38:15;;;;;;;;;;;14.20;99.90;;;;;;6213058;23;19971;-87
2023/03/21 10:40:41;;;;;;;;;;;14.10;99.90;;;;;;6212739;23;19915;-87
2023/03/21 10:43:15;;;;;;;;;;;13.80;99.90;;;;;;6210668;23;19900;-89
2023/03/21 10:45:43;;;;;;;;;;;13.70;99.90;;;;;;6185791;23;19946;-87
2023/03/21 10:48:09;;;;;;;;;;;13.80;99.90;;;;;;6212028;23;19954;-87
2023/03/21 10:50:35;;;;;;;;;;;14.00;99.90;;;;;;6211352;23;20563;-90
2023/03/21 10:53:00;;;;;;;;;;;14.10;99.90;;;;;;6213066;23;19900;-86
2023/03/21 10:55:31;;;;;;;;;;;14.30;99.90;;;;;;6213633;23;19900;-88
2023/03/21 10:58:09;;;;;;;;;;;14.60;99.90;;;;;;6211282;23;19900;-88
2023/03/21 11:00:40;;;;;;;;;;;14.70;99.90;;;;;;6211985;23;20003;-88
2023/03/21 11:03:06;;;;;;;;;;;14.60;99.90;;;;;;6214139;23;19907;-87
2023/03/21 11:05:35;;;;;;;;;;;14.80;99.90;;;;;;6187338;23;19904;-88
2023/03/21 11:08:09;;;;;;;;;;;15.10;99.90;;;;;;6187554;23;19900;-88
2023/03/21 11:10:36;;;;;;;;;;;15.20;99.90;;;;;;6213757;23;19899;-87
2023/03/21 11:13:06;;;;;;;;;;;15.50;99.90;;;;;;6213392;23;19972;-89
2023/03/21 11:15:36;;;;;;;;;;;15.70;99.90;;;;;;6213754;23;19899;-87
2023/03/21 11:18:12;;;;;;;;;;;15.90;99.90;;;;;;6213110;23;19979;-87
2023/03/21 11:20:42;;;;;;;;;;;16.00;99.90;;;;;;6212964;23;19915;-88
2023/03/21 11:23:10;;;;;;;;;;;16.00;99.90;;;;;;6212467;23;19986;-88
2023/03/21 11:25:36;;;;;;;;;;;16.00;99.90;;;;;;6212787;23;19900;-87
2023/03/21 11:28:07;;;;;;;;;;;15.90;99.90;;;;;;6186471;23;19931;-88
2023/03/21 11:30:33;;;;;;;;;;;16.20;99.90;;;;;;6212799;23;19904;-87
2023/03/21 11:33:03;;;;;;;;;;;16.20;99.90;;;;;;6212573;23;19970;-87
2023/03/21 11:35:38;;;;;;;;;;;15.80;99.90;;;;;;6212489;23;19907;-87
2023/03/21 11:38:04;;;;;;;;;;;15.40;99.90;;;;;;6212690;23;19904;-88
2023/03/21 11:40:33;;;;;;;;;;;15.50;99.90;;;;;;6185874;23;19912;-88
2023/03/21 11:43:00;;;;;;;;;;;15.40;99.90;;;;;;6212246;23;19978;-88
2023/03/21 11:45:49;;;;;;;;;;;15.60;99.90;;;;;;6212630;23;20387;-89
2023/03/21 11:48:14;;;;;;;;;;;15.60;99.90;;;;;;6167412;23;19899;-88
2023/03/21 11:50:44;;;;;;;;;;;15.20;99.90;;;;;;6212502;23;20248;-87
2023/03/21 11:53:10;;;;;;;;;;;15.00;99.90;;;;;;6185907;23;20263;-89
2023/03/21 11:55:39;;;;;;;;;;;15.00;99.90;;;;;;6212509;23;19981;-88
2023/03/21 11:58:07;;;;;;;;;;;14.90;99.90;;;;;;6185999;23;19900;-87
2023/03/21 12:00:45;;;;;;;;;;;15.20;99.90;;;;;;6212137;23;19908;-88
2023/03/21 12:03:29;;;;;;;;;;;15.20;99.90;;;;;;6212424;23;20255;-88
2023/03/21 12:05:57;;;;;;;;;;;15.40;99.90;;;;;;6213139;23;19900;-87
2023/03/21 12:08:39;;;;;;;;;;;15.80;99.90;;;;;;6213318;23;19986;-88
2023/03/21 12:11:04;;;;;;;;;;;15.90;99.90;;;;;;6212225;23;19907;-85
2023/03/21 12:13:45;;;;;;;;;;;15.90;99.90;;;;;;6212770;23;19900;-88
2023/03/21 12:16:17;;;;;;;;;;;15.80;99.90;;;;;;6212636;23;19904;-86
2023/03/21 12:19:00;;;;;;;;;;;15.80;99.90;;;;;;6212165;23;19988;-87
2023/03/21 12:21:37;;;;;;;;;;;15.80;99.90;;;;;;6212174;23;19912;-89
2023/03/21 12:24:10;;;;;;;;;;;15.40;99.90;;;;;;6180597;23;19900;-88
2023/03/21 12:26:51;;;;;;;;;;;15.50;99.90;;;;;;6211369;23;20321;-88
2023/03/21 12:29:16;;;;;;;;;;;15.70;99.90;;;;;;6213075;23;20348;-87
2023/03/21 12:31:45;;;;;;;;;;;15.80;99.90;;;;;;6212130;23;19900;-85
2023/03/21 12:34:19;;;;;;;;;;;16.20;99.90;;;;;;6212594;23;20227;-91
2023/03/21 12:37:03;;;;;;;;;;;16.30;99.90;;;;;;6212212;23;20240;-91
2023/03/21 12:39:33;;;;;;;;;;;15.30;99.90;;;;;;6185753;23;20243;-89
2023/03/21 12:42:18;;;;;;;;;;;16.10;99.90;;;;;;6185187;23;19957;-89
2023/03/21 12:44:50;;;;;;;;;;;16.40;99.90;;;;;;6186023;23;19907;-89
2023/03/21 12:47:18;;;;;;;;;;;16.40;99.90;;;;;;6185680;23;20253;-91
2023/03/21 12:49:50;;;;;;;;;;;16.50;99.90;;;;;;6186448;23;19922;-91
2023/03/21 12:52:20;;;;;;;;;;;16.60;99.90;;;;;;6186274;23;19903;-90
2023/03/21 12:54:53;;;;;;;;;;;16.70;99.90;;;;;;6213872;23;20301;-91
2023/03/21 12:57:29;;;;;;;;;;;16.60;99.90;;;;;;6213347;23;19903;-91
2023/03/21 13:00:01;;;;;;;;;;;16.40;99.90;;;;;;6212095;23;19908;-89
2023/03/21 13:02:30;;;;;;;;;;;16.30;99.90;;;;;;6185437;23;19900;-88
2023/03/21 13:05:16;;;;;;;;;;;16.30;99.90;;;;;;6184874;23;19960;-89
2023/03/21 13:07:44;;;;;;;;;;;16.30;99.90;;;;;;6211515;23;19903;-89
2023/03/21 13:10:14;;;;;;;;;;;16.10;99.90;;;;;;6211226;23;19906;-87
2023/03/21 13:12:42;;;;;;;;;;;16.20;99.90;;;;;;6211256;23;19923;-89
2023/03/21 13:15:26;;;;;;;;;;;16.10;99.90;;;;;;6211818;23;19904;-88
2023/03/21 13:18:11;;;;;;;;;;;16.00;99.90;;;;;;6211391;23;19907;-87
2023/03/21 13:20:44;;;;;;;;;;;15.90;99.90;;;;;;6210895;23;20370;-88
2023/03/21 13:23:12;;;;;;;;;;;15.90;99.90;;;;;;6211059;23;20324;-89
2023/03/21 13:25:44;;;;;;;;;;;15.90;99.90;;;;;;6184544;23;19916;-88
2023/03/21 13:28:16;;;;;;;;;;;16.00;99.90;;;;;;6184584;23;19903;-88
2023/03/21 13:30:41;;;;;;;;;;;16.20;99.90;;;;;;6211491;23;20335;-87
2023/03/21 13:33:11;;;;;;;;;;;16.30;99.90;;;;;;6211386;23;19975;-90
2023/03/21 13:35:39;;;;;;;;;;;16.40;99.90;;;;;;6184651;23;20321;-89
2023/03/21 13:38:11;;;;;;;;;;;16.30;99.90;;;;;;6184920;23;19900;-88
2023/03/21 13:40:40;;;;;;;;;;;16.60;99.90;;;;;;6184215;23;19995;-88
2023/03/21 13:43:25;;;;;;;;;;;17.00;99.90;;;;;;6211507;23;19900;-88
2023/03/21 13:45:52;;;;;;;;;;;16.90;99.90;;;;;;6185418;23;19935;-87
2023/03/21 13:48:28;;;;;;;;;;;16.60;99.90;;;;;;6184672;23;19900;-87
2023/03/21 13:51:04;;;;;;;;;;;16.50;99.90;;;;;;6183858;23;19907;-88
2023/03/21 13:53:40;;;;;;;;;;;16.50;99.90;;;;;;6184144;23;19946;-90
2023/03/21 13:56:07;;;;;;;;;;;16.50;99.90;;;;;;6211702;23;20314;-90
2023/03/21 13:58:36;;;;;;;;;;;16.60;99.90;;;;;;6184344;23;19986;-88
2023/03/21 14:01:11;;;;;;;;;;;16.50;99.90;;;;;;6211143;23;19914;-90
2023/03/21 14:03:38;;;;;;;;;;;16.40;99.90;;;;;;6184463;23;19935;-91
2023/03/21 14:06:04;;;;;;;;;;;16.50;99.90;;;;;;6184695;23;19982;-88
2023/03/21 14:08:31;;;;;;;;;;;16.60;99.90;;;;;;6185205;23;19900;-91
2023/03/21 14:10:59;;;;;;;;;;;16.70;99.90;;;;;;6211591;23;19975;-94
2023/03/21 14:13:25;;;;;;;;;;;16.70;99.90;;;;;;6184975;23;19900;-87
2023/03/21 14:15:52;;;;;;;;;;;16.60;99.90;;;;;;6186631;23;19900;-91
2023/03/21 14:18:19;;;;;;;;;;;16.60;99.90;;;;;;6184574;23;20214;-87
2023/03/21 14:20:44;;;;;;;;;;;16.50;99.90;;;;;;6209696;23;20221;-88
2023/03/21 14:23:13;;;;;;;;;;;16.70;99.90;;;;;;6210718;23;19904;-90
2023/03/21 14:25:41;;;;;;;;;;;16.70;99.90;;;;;;6184426;23;19900;-88
2023/03/21 14:28:12;;;;;;;;;;;16.80;99.90;;;;;;6211343;23;19907;-89